sensor_id;sensor_type;location;lat;lon;timestamp;pressure;altitude;pressure_sealevel;temperature;humidity
23953;BME280;12163;49.316;6.092;2022-12-24T00:00:58;98938.28;;;12.09;79.13
23953;BME280;12163;49.316;6.092;2022-12-24T00:03:25;98951.31;;;12.07;80.04
23953;BME280;12163;49.316;6.092;2022-12-24T00:05:52;98952.91;;;12.08;79.60
23953;BME280;12163;49.316;6.092;2022-12-24T00:08:19;98958.31;;;12.08;80.94
23953;BME280;12163;49.316;6.092;2022-12-24T00:10:52;98952.78;;;12.13;80.86
23953;BME280;12163;49.316;6.092;2022-12-24T00:13:19;98960.25;;;12.16;81.30
23953;BME280;12163;49.316;6.092;2022-12-24T00:15:46;98960.25;;;12.16;81.77
23953;BME280;12163;49.316;6.092;2022-12-24T00:18:13;98951.66;;;12.14;81.10
23953;BME280;12163;49.316;6.092;2022-12-24T00:20:39;98952.28;;;12.11;81.90
23953;BME280;12163;49.316;6.092;2022-12-24T00:23:06;98952.28;;;12.11;81.60
23953;BME280;12163;49.316;6.092;2022-12-24T00:25:33;98946.25;;;12.14;82.14
23953;BME280;12163;49.316;6.092;2022-12-24T00:27:59;98945.63;;;12.17;81.69
23953;BME280;12163;49.316;6.092;2022-12-24T00:30:26;98955.81;;;12.20;81.42
23953;BME280;12163;49.316;6.092;2022-12-24T00:32:53;98961.84;;;12.17;81.42
23953;BME280;12163;49.316;6.092;2022-12-24T00:35:20;98959.47;;;12.16;81.55
23953;BME280;12163;49.316;6.092;2022-12-24T00:37:47;98960.88;;;12.13;81.80
23953;BME280;12163;49.316;6.092;2022-12-24T00:40:15;98960.88;;;12.13;81.88
23953;BME280;12163;49.316;6.092;2022-12-24T00:42:42;98962.47;;;12.14;81.97
23953;BME280;12163;49.316;6.092;2022-12-24T00:45:09;98956.78;;;12.16;82.38
23953;BME280;12163;49.316;6.092;2022-12-24T00:47:36;98969.19;;;12.17;82.35
23953;BME280;12163;49.316;6.092;2022-12-24T00:50:04;98970.28;;;12.16;82.11
23953;BME280;12163;49.316;6.092;2022-12-24T00:52:31;98972.19;;;12.15;82.80
23953;BME280;12163;49.316;6.092;2022-12-24T00:54:57;98970.28;;;12.16;82.21
23953;BME280;12163;49.316;6.092;2022-12-24T00:57:24;98983.63;;;12.12;81.89
23953;BME280;12163;49.316;6.092;2022-12-24T00:59:51;98979.31;;;12.11;82.49
23953;BME280;12163;49.316;6.092;2022-12-24T01:02:17;98981.06;;;12.07;82.50
23953;BME280;12163;49.316;6.092;2022-12-24T01:04:44;98983.75;;;12.07;82.23
23953;BME280;12163;49.316;6.092;2022-12-24T01:07:30;98989.31;;;12.02;82.54
23953;BME280;12163;49.316;6.092;2022-12-24T01:09:56;98991.50;;;12.00;82.93
23953;BME280;12163;49.316;6.092;2022-12-24T01:12:23;99007.41;;;12.02;82.80
23953;BME280;12163;49.316;6.092;2022-12-24T01:14:50;98999.31;;;12.02;82.61
23953;BME280;12163;49.316;6.092;2022-12-24T01:17:17;99011.72;;;12.03;83.22
23953;BME280;12163;49.316;6.092;2022-12-24T01:19:44;98995.50;;;12.03;83.31
23953;BME280;12163;49.316;6.092;2022-12-24T01:22:10;99000.28;;;12.06;83.47
23953;BME280;12163;49.316;6.092;2022-12-24T01:24:39;99005.41;;;12.07;83.35
23953;BME280;12163;49.316;6.092;2022-12-24T01:27:07;99017.81;;;12.08;83.11
23953;BME280;12163;49.316;6.092;2022-12-24T01:29:34;99012.88;;;12.10;82.92
23953;BME280;12163;49.316;6.092;2022-12-24T01:32:00;99007.97;;;12.12;82.93
23953;BME280;12163;49.316;6.092;2022-12-24T01:34:27;98994.16;;;12.14;82.51
23953;BME280;12163;49.316;6.092;2022-12-24T01:36:54;99001.94;;;12.15;82.01
23953;BME280;12163;49.316;6.092;2022-12-24T01:39:20;99000.81;;;12.16;82.11
23953;BME280;12163;49.316;6.092;2022-12-24T01:41:47;99014.56;;;12.20;83.04
23953;BME280;12163;49.316;6.092;2022-12-24T01:44:34;99003.09;;;12.23;82.35
23953;BME280;12163;49.316;6.092;2022-12-24T01:47:08;99001.50;;;12.22;82.14
23953;BME280;12163;49.316;6.092;2022-12-24T01:49:38;99024.44;;;12.24;82.68
23953;BME280;12163;49.316;6.092;2022-12-24T01:52:14;99010.94;;;12.24;82.35
23953;BME280;12163;49.316;6.092;2022-12-24T01:54:53;99011.72;;;12.25;81.61
23953;BME280;12163;49.316;6.092;2022-12-24T01:57:45;99006.63;;;12.23;82.14
23953;BME280;12163;49.316;6.092;2022-12-24T02:00:15;99017.31;;;12.28;82.10
23953;BME280;12163;49.316;6.092;2022-12-24T02:02:47;99028.13;;;12.28;81.89
23953;BME280;12163;49.316;6.092;2022-12-24T02:08:03;99047.56;;;12.30;81.71
23953;BME280;12163;49.316;6.092;2022-12-24T02:10:30;99049.44;;;12.30;81.27
23953;BME280;12163;49.316;6.092;2022-12-24T02:12:58;99043.75;;;12.31;82.02
23953;BME280;12163;49.316;6.092;2022-12-24T02:15:27;99048.66;;;12.29;81.79
23953;BME280;12163;49.316;6.092;2022-12-24T02:20:55;99041.34;;;12.30;80.89
23953;BME280;12163;49.316;6.092;2022-12-24T02:29:51;99071.41;;;12.28;80.99
23953;BME280;12163;49.316;6.092;2022-12-24T02:37:30;99076.22;;;12.31;80.97
23953;BME280;12163;49.316;6.092;2022-12-24T02:40:18;99070.59;;;12.28;80.65
23953;BME280;12163;49.316;6.092;2022-12-24T02:42:55;99083.03;;;12.29;80.53
23953;BME280;12163;49.316;6.092;2022-12-24T02:45:31;99074.13;;;12.28;79.87
23953;BME280;12163;49.316;6.092;2022-12-24T02:47:59;99082.25;;;12.28;80.38
23953;BME280;12163;49.316;6.092;2022-12-24T02:50:27;99093.84;;;12.29;79.76
23953;BME280;12163;49.316;6.092;2022-12-24T02:52:54;99093.69;;;12.25;79.70
23953;BME280;12163;49.316;6.092;2022-12-24T02:55:33;99092.88;;;12.25;79.20
23953;BME280;12163;49.316;6.092;2022-12-24T03:03:34;99095.06;;;12.23;79.44
23953;BME280;12163;49.316;6.092;2022-12-24T03:06:15;99106.38;;;12.25;79.29
23953;BME280;12163;49.316;6.092;2022-12-24T03:08:50;99119.22;;;12.19;79.16
23953;BME280;12163;49.316;6.092;2022-12-24T03:11:19;99110.53;;;12.22;79.16
23953;BME280;12163;49.316;6.092;2022-12-24T03:13:47;99104.31;;;12.22;79.45
23953;BME280;12163;49.316;6.092;2022-12-24T03:16:22;99113.53;;;12.21;78.98
23953;BME280;12163;49.316;6.092;2022-12-24T03:18:51;99119.13;;;12.24;79.12
23953;BME280;12163;49.316;6.092;2022-12-24T03:21:26;99119.44;;;12.23;78.74
23953;BME280;12163;49.316;6.092;2022-12-24T03:23:54;99134.25;;;12.25;78.75
23953;BME280;12163;49.316;6.092;2022-12-24T03:26:21;99117.53;;;12.23;78.36
23953;BME280;12163;49.316;6.092;2022-12-24T03:28:48;99120.72;;;12.25;78.53
23953;BME280;12163;49.316;6.092;2022-12-24T03:31:16;99129.94;;;12.24;78.16
23953;BME280;12163;49.316;6.092;2022-12-24T03:33:44;99122.94;;;12.23;79.12
23953;BME280;12163;49.316;6.092;2022-12-24T03:36:11;99124.53;;;12.24;79.45
23953;BME280;12163;49.316;6.092;2022-12-24T03:38:38;99121.34;;;12.22;79.12
23953;BME280;12163;49.316;6.092;2022-12-24T03:41:05;99107.50;;;12.24;78.85
23953;BME280;12163;49.316;6.092;2022-12-24T03:43:32;99117.53;;;12.23;78.86
23953;BME280;12163;49.316;6.092;2022-12-24T03:46:04;99121.34;;;12.22;78.77
23953;BME280;12163;49.316;6.092;2022-12-24T03:48:33;99126.44;;;12.24;78.08
23953;BME280;12163;49.316;6.092;2022-12-24T03:51:02;99127.25;;;12.24;78.50
23953;BME280;12163;49.316;6.092;2022-12-24T03:53:28;99123.72;;;12.24;78.42
23953;BME280;12163;49.316;6.092;2022-12-24T03:55:55;99126.75;;;12.22;78.40
23953;BME280;12163;49.316;6.092;2022-12-24T03:58:22;99120.53;;;12.22;77.90
23953;BME280;12163;49.316;6.092;2022-12-24T04:00:48;99133.75;;;12.23;78.21
23953;BME280;12163;49.316;6.092;2022-12-24T04:03:15;99144.59;;;12.23;78.04
23953;BME280;12163;49.316;6.092;2022-12-24T04:05:42;99132.75;;;12.19;78.32
23953;BME280;12163;49.316;6.092;2022-12-24T04:08:08;99145.16;;;12.20;78.92
23953;BME280;12163;49.316;6.092;2022-12-24T04:10:35;99141.38;;;12.21;78.53
23953;BME280;12163;49.316;6.092;2022-12-24T04:13:01;99139.75;;;12.20;78.32
23953;BME280;12163;49.316;6.092;2022-12-24T04:15:28;99142.16;;;12.22;78.00
23953;BME280;12163;49.316;6.092;2022-12-24T04:17:55;99143.00;;;12.22;78.77
23953;BME280;12163;49.316;6.092;2022-12-24T04:20:21;99134.88;;;12.22;78.88
23953;BME280;12163;49.316;6.092;2022-12-24T04:22:48;99136.75;;;12.22;77.78
23953;BME280;12163;49.316;6.092;2022-12-24T04:25:14;99125.94;;;12.22;77.45
23953;BME280;12163;49.316;6.092;2022-12-24T04:27:41;99120.81;;;12.20;78.32
23953;BME280;12163;49.316;6.092;2022-12-24T04:30:08;99122.75;;;12.20;77.72
23953;BME280;12163;49.316;6.092;2022-12-24T04:32:34;99115.53;;;12.15;78.26
23953;BME280;12163;49.316;6.092;2022-12-24T04:35:01;99131.88;;;12.10;78.22
23953;BME280;12163;49.316;6.092;2022-12-24T04:37:28;99126.97;;;12.12;78.12
23953;BME280;12163;49.316;6.092;2022-12-24T04:39:55;99130.78;;;12.11;78.53
23953;BME280;12163;49.316;6.092;2022-12-24T04:42:21;99129.69;;;12.12;77.69
23953;BME280;12163;49.316;6.092;2022-12-24T04:44:48;99131.88;;;12.10;78.42
23953;BME280;12163;49.316;6.092;2022-12-24T04:47:14;99131.88;;;12.10;78.57
23953;BME280;12163;49.316;6.092;2022-12-24T04:49:42;99142.50;;;12.07;77.88
23953;BME280;12163;49.316;6.092;2022-12-24T04:52:08;99128.19;;;12.06;77.57
23953;BME280;12163;49.316;6.092;2022-12-24T04:54:35;99133.59;;;12.06;77.88
23953;BME280;12163;49.316;6.092;2022-12-24T04:57:01;99123.56;;;12.07;77.95
23953;BME280;12163;49.316;6.092;2022-12-24T04:59:28;99125.50;;;12.06;78.34
23953;BME280;12163;49.316;6.092;2022-12-24T05:01:55;99125.50;;;12.06;77.85
23953;BME280;12163;49.316;6.092;2022-12-24T05:04:21;99137.59;;;12.09;77.70
23953;BME280;12163;49.316;6.092;2022-12-24T05:06:48;99144.31;;;12.11;78.12
23953;BME280;12163;49.316;6.092;2022-12-24T05:09:15;99143.00;;;12.09;77.26
23953;BME280;12163;49.316;6.092;2022-12-24T05:11:41;99141.59;;;12.11;77.09
23953;BME280;12163;49.316;6.092;2022-12-24T05:14:08;99151.31;;;12.12;77.46
23953;BME280;12163;49.316;6.092;2022-12-24T05:16:34;99154.84;;;12.13;77.20
23953;BME280;12163;49.316;6.092;2022-12-24T05:19:01;99153.41;;;12.15;77.26
23953;BME280;12163;49.316;6.092;2022-12-24T05:21:28;99169.34;;;12.17;77.42
23953;BME280;12163;49.316;6.092;2022-12-24T05:23:55;99165.03;;;12.16;77.11
23953;BME280;12163;49.316;6.092;2022-12-24T05:26:45;99169.63;;;12.15;77.96
23953;BME280;12163;49.316;6.092;2022-12-24T05:29:13;99170.13;;;12.17;77.27
23953;BME280;12163;49.316;6.092;2022-12-24T05:31:41;99182.06;;;12.16;77.54
23953;BME280;12163;49.316;6.092;2022-12-24T05:34:09;99169.63;;;12.15;77.82
23953;BME280;12163;49.316;6.092;2022-12-24T05:36:36;99168.53;;;12.16;77.10
23953;BME280;12163;49.316;6.092;2022-12-24T05:39:03;99175.03;;;12.15;78.16
23953;BME280;12163;49.316;6.092;2022-12-24T05:41:38;99171.84;;;12.13;77.41
23953;BME280;12163;49.316;6.092;2022-12-24T05:44:05;99174.56;;;12.13;77.94
23953;BME280;12163;49.316;6.092;2022-12-24T05:46:32;99164.84;;;12.12;77.58
23953;BME280;12163;49.316;6.092;2022-12-24T05:48:58;99168.66;;;12.11;77.80
23953;BME280;12163;49.316;6.092;2022-12-24T05:51:25;99169.53;;;12.07;78.30
23953;BME280;12163;49.316;6.092;2022-12-24T05:53:52;99170.38;;;12.07;78.24
23953;BME280;12163;49.316;6.092;2022-12-24T05:56:22;99173.84;;;12.08;78.35
23953;BME280;12163;49.316;6.092;2022-12-24T05:58:50;99177.34;;;12.22;78.19
23953;BME280;12163;49.316;6.092;2022-12-24T06:01:18;99177.63;;;12.34;77.80
23953;BME280;12163;49.316;6.092;2022-12-24T06:03:45;99192.31;;;12.41;77.26
23953;BME280;12163;49.316;6.092;2022-12-24T06:06:15;99191.72;;;12.44;77.65
23953;BME280;12163;49.316;6.092;2022-12-24T06:08:44;99195.56;;;12.65;78.05
23953;BME280;12163;49.316;6.092;2022-12-24T06:11:13;99191.84;;;12.83;76.88
23953;BME280;12163;49.316;6.092;2022-12-24T06:13:40;99188.53;;;13.08;76.33
23953;BME280;12163;49.316;6.092;2022-12-24T06:16:12;99190.13;;;13.09;75.53
23953;BME280;12163;49.316;6.092;2022-12-24T06:18:40;99186.34;;;13.10;76.08
23953;BME280;12163;49.316;6.092;2022-12-24T06:21:08;99190.50;;;13.16;75.21
23953;BME280;12163;49.316;6.092;2022-12-24T06:23:37;99196.56;;;13.13;75.67
23953;BME280;12163;49.316;6.092;2022-12-24T06:26:05;99199.13;;;13.18;74.36
23953;BME280;12163;49.316;6.092;2022-12-24T06:28:35;99203.66;;;13.01;74.90
23953;BME280;12163;49.316;6.092;2022-12-24T06:31:04;99200.78;;;12.84;74.83
23953;BME280;12163;49.316;6.092;2022-12-24T06:33:32;99219.91;;;12.87;75.41
23953;BME280;12163;49.316;6.092;2022-12-24T06:36:00;99197.06;;;12.93;75.73
23953;BME280;12163;49.316;6.092;2022-12-24T06:38:28;99195.94;;;12.94;74.58
23953;BME280;12163;49.316;6.092;2022-12-24T06:40:55;99187.66;;;12.77;74.85
23953;BME280;12163;49.316;6.092;2022-12-24T06:43:22;99202.31;;;12.76;75.07
23953;BME280;12163;49.316;6.092;2022-12-24T06:45:49;99187.03;;;12.58;75.84
23953;BME280;12163;49.316;6.092;2022-12-24T06:48:15;99192.00;;;12.43;75.89
23953;BME280;12163;49.316;6.092;2022-12-24T06:50:42;99198.78;;;12.32;76.48
23953;BME280;12163;49.316;6.092;2022-12-24T06:53:09;99192.09;;;12.16;77.13
23953;BME280;12163;49.316;6.092;2022-12-24T06:55:36;99193.72;;;12.03;77.15
23953;BME280;12163;49.316;6.092;2022-12-24T06:58:03;99200.41;;;11.92;78.25
23953;BME280;12163;49.316;6.092;2022-12-24T07:00:30;99200.03;;;11.85;78.39
23953;BME280;12163;49.316;6.092;2022-12-24T07:02:57;99191.53;;;11.78;78.92
23953;BME280;12163;49.316;6.092;2022-12-24T07:05:24;99193.22;;;11.74;79.54
23953;BME280;12163;49.316;6.092;2022-12-24T07:07:50;99189.53;;;11.71;79.46
23953;BME280;12163;49.316;6.092;2022-12-24T07:10:18;99189.13;;;11.64;80.25
23953;BME280;12163;49.316;6.092;2022-12-24T07:12:45;99187.03;;;11.61;80.66
23953;BME280;12163;49.316;6.092;2022-12-24T07:15:12;99194.13;;;11.57;80.12
23953;BME280;12163;49.316;6.092;2022-12-24T07:17:39;99201.72;;;11.55;80.59
23953;BME280;12163;49.316;6.092;2022-12-24T07:20:10;99194.19;;;11.52;80.65
23953;BME280;12163;49.316;6.092;2022-12-24T07:22:37;99204.50;;;11.50;80.94
23953;BME280;12163;49.316;6.092;2022-12-24T07:25:04;99199.91;;;11.50;81.24
23953;BME280;12163;49.316;6.092;2022-12-24T07:27:31;99199.09;;;11.50;81.41
23953;BME280;12163;49.316;6.092;2022-12-24T07:29:57;99207.69;;;11.52;81.38
23953;BME280;12163;49.316;6.092;2022-12-24T07:32:24;99211.81;;;11.49;81.55
23953;BME280;12163;49.316;6.092;2022-12-24T07:34:51;99205.09;;;11.47;81.95
23953;BME280;12163;49.316;6.092;2022-12-24T07:37:17;99217.22;;;11.49;81.35
23953;BME280;12163;49.316;6.092;2022-12-24T07:39:44;99213.41;;;11.50;81.59
23953;BME280;12163;49.316;6.092;2022-12-24T07:42:10;99232.63;;;11.49;81.66
23953;BME280;12163;49.316;6.092;2022-12-24T07:44:37;99222.91;;;11.48;81.66
23953;BME280;12163;49.316;6.092;2022-12-24T07:47:04;99217.50;;;11.48;81.80
23953;BME280;12163;49.316;6.092;2022-12-24T07:49:30;99217.50;;;11.48;81.44
23953;BME280;12163;49.316;6.092;2022-12-24T07:51:57;99225.91;;;11.46;82.10
23953;BME280;12163;49.316;6.092;2022-12-24T07:54:24;99231.50;;;11.50;81.77
23953;BME280;12163;49.316;6.092;2022-12-24T07:56:51;99232.94;;;11.47;82.32
23953;BME280;12163;49.316;6.092;2022-12-24T07:59:17;99237.41;;;11.52;81.96
23953;BME280;12163;49.316;6.092;2022-12-24T08:01:44;99239.53;;;11.55;82.28
23953;BME280;12163;49.316;6.092;2022-12-24T08:04:11;99239.47;;;11.60;81.79
23953;BME280;12163;49.316;6.092;2022-12-24T08:06:38;99244.28;;;11.63;82.13
23953;BME280;12163;49.316;6.092;2022-12-24T08:09:05;99247.47;;;11.65;81.60
23953;BME280;12163;49.316;6.092;2022-12-24T08:11:31;99241.47;;;11.68;81.79
23953;BME280;12163;49.316;6.092;2022-12-24T08:13:58;99245.19;;;11.72;81.93
23953;BME280;12163;49.316;6.092;2022-12-24T08:16:25;99249.91;;;11.79;82.20
23953;BME280;12163;49.316;6.092;2022-12-24T08:18:51;99253.59;;;11.83;81.15
23953;BME280;12163;49.316;6.092;2022-12-24T08:21:18;99257.81;;;11.89;81.36
23953;BME280;12163;49.316;6.092;2022-12-24T08:23:45;99259.13;;;11.92;81.49
23953;BME280;12163;49.316;6.092;2022-12-24T08:26:12;99263.31;;;11.98;80.79
23953;BME280;12163;49.316;6.092;2022-12-24T08:28:39;99279.75;;;12.01;81.03
23953;BME280;12163;49.316;6.092;2022-12-24T08:31:06;99279.66;;;12.06;80.59
23953;BME280;12163;49.316;6.092;2022-12-24T08:33:33;99277.16;;;12.10;80.68
23953;BME280;12163;49.316;6.092;2022-12-24T08:36:00;99282.44;;;12.15;81.04
23953;BME280;12163;49.316;6.092;2022-12-24T08:38:28;99282.06;;;12.21;81.06
23953;BME280;12163;49.316;6.092;2022-12-24T08:40:55;99293.88;;;12.25;81.13
23953;BME280;12163;49.316;6.092;2022-12-24T08:43:21;99292.44;;;12.28;80.12
23953;BME280;12163;49.316;6.092;2022-12-24T08:45:51;99291.66;;;12.27;80.49
23953;BME280;12163;49.316;6.092;2022-12-24T08:48:18;99285.63;;;12.30;80.50
23953;BME280;12163;49.316;6.092;2022-12-24T08:50:45;99290.94;;;12.35;80.68
23953;BME280;12163;49.316;6.092;2022-12-24T08:53:12;99293.03;;;12.38;80.20
23953;BME280;12163;49.316;6.092;2022-12-24T08:55:39;99287.63;;;12.38;79.69
23953;BME280;12163;49.316;6.092;2022-12-24T08:58:06;99294.03;;;12.42;80.13
23953;BME280;12163;49.316;6.092;2022-12-24T09:00:32;99288.53;;;12.47;80.13
23953;BME280;12163;49.316;6.092;2022-12-24T09:02:59;99283.00;;;12.52;79.68
23953;BME280;12163;49.316;6.092;2022-12-24T09:05:26;99285.22;;;12.50;78.95
23953;BME280;12163;49.316;6.092;2022-12-24T09:07:54;99279.59;;;12.47;79.37
23953;BME280;12163;49.316;6.092;2022-12-24T09:10:21;99282.63;;;12.45;78.80
23953;BME280;12163;49.316;6.092;2022-12-24T09:12:48;99289.03;;;12.49;79.12
23953;BME280;12163;49.316;6.092;2022-12-24T09:15:14;99301.44;;;12.50;79.35
23953;BME280;12163;49.316;6.092;2022-12-24T09:17:41;99302.94;;;12.56;79.24
23953;BME280;12163;49.316;6.092;2022-12-24T09:20:08;99315.25;;;12.62;78.91
23953;BME280;12163;49.316;6.092;2022-12-24T09:22:37;99307.53;;;12.69;79.51
23953;BME280;12163;49.316;6.092;2022-12-24T09:25:04;99317.91;;;12.76;78.83
23953;BME280;12163;49.316;6.092;2022-12-24T09:27:36;99322.44;;;12.80;78.99
23953;BME280;12163;49.316;6.092;2022-12-24T09:30:04;99328.47;;;12.77;77.75
23953;BME280;12163;49.316;6.092;2022-12-24T09:32:32;99325.56;;;12.74;77.93
23953;BME280;12163;49.316;6.092;2022-12-24T09:34:59;99326.97;;;12.71;78.45
23953;BME280;12163;49.316;6.092;2022-12-24T09:37:26;99325.38;;;12.70;78.76
23953;BME280;12163;49.316;6.092;2022-12-24T09:39:53;99330.19;;;12.73;79.10
23953;BME280;12163;49.316;6.092;2022-12-24T09:48:27;99339.69;;;12.71;78.22
23953;BME280;12163;49.316;6.092;2022-12-24T09:51:02;99344.94;;;12.67;78.49
23953;BME280;12163;49.316;6.092;2022-12-24T09:53:42;99353.06;;;12.67;78.00
23953;BME280;12163;49.316;6.092;2022-12-24T09:56:18;99345.72;;;12.68;78.46
23953;BME280;12163;49.316;6.092;2022-12-24T10:01:23;99345.94;;;12.71;78.59
23953;BME280;12163;49.316;6.092;2022-12-24T10:03:50;99352.94;;;12.72;79.46
23953;BME280;12163;49.316;6.092;2022-12-24T10:06:23;99351.22;;;12.76;78.51
23953;BME280;12163;49.316;6.092;2022-12-24T10:09:19;99358.53;;;12.76;79.15
23953;BME280;12163;49.316;6.092;2022-12-24T10:15:27;99349.50;;;12.80;78.77
23953;BME280;12163;49.316;6.092;2022-12-24T10:23:30;99354.31;;;12.83;79.35
23953;BME280;12163;49.316;6.092;2022-12-24T10:28:56;99352.22;;;12.80;79.15
23953;BME280;12163;49.316;6.092;2022-12-24T10:31:40;99355.03;;;12.75;79.86
23953;BME280;12163;49.316;6.092;2022-12-24T10:34:22;99356.94;;;12.75;79.57
23953;BME280;12163;49.316;6.092;2022-12-24T10:36:50;99355.53;;;12.77;79.84
23953;BME280;12163;49.316;6.092;2022-12-24T10:39:22;99362.66;;;12.73;80.05
23953;BME280;12163;49.316;6.092;2022-12-24T10:41:54;99369.97;;;12.73;80.10
23953;BME280;12163;49.316;6.092;2022-12-24T10:44:25;99374.19;;;12.79;80.11
23953;BME280;12163;49.316;6.092;2022-12-24T10:46:53;99362.56;;;12.78;80.42
23953;BME280;12163;49.316;6.092;2022-12-24T10:49:34;99369.56;;;12.79;79.66
23953;BME280;12163;49.316;6.092;2022-12-24T10:52:03;99377.81;;;12.74;79.67
23953;BME280;12163;49.316;6.092;2022-12-24T10:54:31;99363.94;;;12.76;79.19
23953;BME280;12163;49.316;6.092;2022-12-24T10:57:18;99359.34;;;12.76;78.97
23953;BME280;12163;49.316;6.092;2022-12-24T10:59:53;99358.13;;;12.82;79.62
23953;BME280;12163;49.316;6.092;2022-12-24T11:05:00;99353.53;;;12.96;77.73
23953;BME280;12163;49.316;6.092;2022-12-24T11:07:29;99356.72;;;12.98;78.64
23953;BME280;12163;49.316;6.092;2022-12-24T11:10:01;99349.72;;;12.97;77.81
23953;BME280;12163;49.316;6.092;2022-12-24T11:12:31;99352.91;;;12.99;77.93
23953;BME280;12163;49.316;6.092;2022-12-24T11:15:07;99353.63;;;12.91;78.07
23953;BME280;12163;49.316;6.092;2022-12-24T11:17:40;99348.09;;;12.96;78.18
23953;BME280;12163;49.316;6.092;2022-12-24T11:20:16;99345.91;;;12.98;77.60
23953;BME280;12163;49.316;6.092;2022-12-24T11:22:48;99345.41;;;12.96;76.50
23953;BME280;12163;49.316;6.092;2022-12-24T11:25:24;99356.31;;;12.91;77.08
23953;BME280;12163;49.316;6.092;2022-12-24T11:27:54;99361.16;;;12.94;77.28
23953;BME280;12163;49.316;6.092;2022-12-24T11:30:29;99352.31;;;12.89;77.32
23953;BME280;12163;49.316;6.092;2022-12-24T11:35:30;99363.38;;;12.79;77.27
23953;BME280;12163;49.316;6.092;2022-12-24T11:40:35;99364.28;;;12.74;77.11
23953;BME280;12163;49.316;6.092;2022-12-24T11:43:03;99360.94;;;12.77;77.11
23953;BME280;12163;49.316;6.092;2022-12-24T11:51:05;99362.97;;;12.72;77.58
23953;BME280;12163;49.316;6.092;2022-12-24T11:56:44;99355.53;;;12.77;76.83
23953;BME280;12163;49.316;6.092;2022-12-24T11:59:25;99357.75;;;12.75;76.27
23953;BME280;12163;49.316;6.092;2022-12-24T12:02:01;99356.66;;;12.76;77.03
23953;BME280;12163;49.316;6.092;2022-12-24T12:04:32;99363.94;;;12.76;76.51
23953;BME280;12163;49.316;6.092;2022-12-24T12:07:10;99347.53;;;12.72;76.55
23953;BME280;12163;49.316;6.092;2022-12-24T12:09:44;99358.16;;;12.69;76.26
23953;BME280;12163;49.316;6.092;2022-12-24T12:12:19;99350.94;;;12.64;76.84
23953;BME280;12163;49.316;6.092;2022-12-24T12:14:53;99345.22;;;12.66;77.63
23953;BME280;12163;49.316;6.092;2022-12-24T12:20:44;99350.34;;;12.67;78.09
23953;BME280;12163;49.316;6.092;2022-12-24T12:28:37;99363.78;;;12.72;78.74
23953;BME280;12163;49.316;6.092;2022-12-24T12:31:26;99362.78;;;12.68;78.88
23953;BME280;12163;49.316;6.092;2022-12-24T12:37:14;99359.00;;;12.56;78.90
23953;BME280;12163;49.316;6.092;2022-12-24T12:39:40;99345.75;;;12.54;78.48
23953;BME280;12163;49.316;6.092;2022-12-24T12:42:29;99359.56;;;12.53;78.85
23953;BME280;12163;49.316;6.092;2022-12-24T12:55:38;99358.75;;;12.66;78.98
23953;BME280;12163;49.316;6.092;2022-12-24T13:01:04;99362.78;;;12.68;78.12
23953;BME280;12163;49.316;6.092;2022-12-24T13:14:53;99344.31;;;12.84;76.30
23953;BME280;12163;49.316;6.092;2022-12-24T13:20:20;99360.34;;;12.80;77.04
23953;BME280;12163;49.316;6.092;2022-12-24T13:22:55;99355.13;;;12.84;76.70
23953;BME280;12163;49.316;6.092;2022-12-24T13:25:32;99352.72;;;12.82;76.73
23953;BME280;12163;49.316;6.092;2022-12-24T13:36:10;99374.78;;;12.89;77.06
23953;BME280;12163;49.316;6.092;2022-12-24T13:49:29;99359.72;;;12.97;75.69
23953;BME280;12163;49.316;6.092;2022-12-24T13:57:31;99349.59;;;13.02;75.97
23953;BME280;12163;49.316;6.092;2022-12-24T14:02:59;99363.13;;;13.02;75.80
23953;BME280;12163;49.316;6.092;2022-12-24T14:05:44;99356.25;;;12.96;75.75
23953;BME280;12163;49.316;6.092;2022-12-24T14:11:13;99362.75;;;12.95;75.61
23953;BME280;12163;49.316;6.092;2022-12-24T14:16:10;99366.56;;;12.94;76.26
23953;BME280;12163;49.316;6.092;2022-12-24T14:18:40;99357.97;;;12.92;75.73
23953;BME280;12163;49.316;6.092;2022-12-24T14:21:15;99375.97;;;12.83;76.00
23953;BME280;12163;49.316;6.092;2022-12-24T14:26:19;99378.81;;;12.78;75.88
23953;BME280;12163;49.316;6.092;2022-12-24T14:28:58;99381.63;;;12.73;74.85
23953;BME280;12163;49.316;6.092;2022-12-24T14:31:26;99378.41;;;12.71;74.83
23953;BME280;12163;49.316;6.092;2022-12-24T14:34:10;99380.63;;;12.69;75.29
23953;BME280;12163;49.316;6.092;2022-12-24T14:36:38;99369.31;;;12.67;74.82
23953;BME280;12163;49.316;6.092;2022-12-24T14:39:08;99373.13;;;12.66;75.64
23953;BME280;12163;49.316;6.092;2022-12-24T14:44:48;99383.53;;;12.59;75.11
23953;BME280;12163;49.316;6.092;2022-12-24T14:47:36;99381.44;;;12.56;74.72
23953;BME280;12163;49.316;6.092;2022-12-24T14:50:35;99384.75;;;12.53;75.18
23953;BME280;12163;49.316;6.092;2022-12-24T14:53:25;99389.66;;;12.51;75.34
23953;BME280;12163;49.316;6.092;2022-12-24T14:55:53;99380.94;;;12.54;75.79
23953;BME280;12163;49.316;6.092;2022-12-24T14:58:31;99370.72;;;12.51;75.45
23953;BME280;12163;49.316;6.092;2022-12-24T15:01:15;99377.84;;;12.47;75.06
23953;BME280;12163;49.316;6.092;2022-12-24T15:03:43;99388.84;;;12.37;75.14
23953;BME280;12163;49.316;6.092;2022-12-24T15:06:12;99400.28;;;12.34;75.45
23953;BME280;12163;49.316;6.092;2022-12-24T15:08:44;99403.28;;;12.33;75.56
23953;BME280;12163;49.316;6.092;2022-12-24T15:11:18;99405.38;;;12.22;75.95
23953;BME280;12163;49.316;6.092;2022-12-24T15:13:48;99403.19;;;12.24;75.48
23953;BME280;12163;49.316;6.092;2022-12-24T15:16:25;99393.16;;;12.25;75.72
23953;BME280;12163;49.316;6.092;2022-12-24T15:18:56;99400.47;;;12.24;75.23
23953;BME280;12163;49.316;6.092;2022-12-24T15:21:35;99391.88;;;12.22;75.35
23953;BME280;12163;49.316;6.092;2022-12-24T15:24:03;99392.06;;;12.26;75.32
23953;BME280;12163;49.316;6.092;2022-12-24T15:26:32;99403.09;;;12.29;75.73
23953;BME280;12163;49.316;6.092;2022-12-24T15:29:19;99411.81;;;12.26;75.60
23953;BME280;12163;49.316;6.092;2022-12-24T15:31:51;99419.31;;;12.29;75.95